sensor_id;sensor_type;location;lat;lon;timestamp;P1;durP1;ratioP1;P2;durP2;ratioP2
47161;SDS011;32921;53.256;8.198;2023-11-18T00:02:23;442.95;;;409.23;;
47161;SDS011;32921;53.256;8.198;2023-11-18T00:04:49;387.48;;;358.73;;
47161;SDS011;32921;53.256;8.198;2023-11-18T00:07:16;411.60;;;381.10;;
47161;SDS011;32921;53.256;8.198;2023-11-18T00:09:42;477.85;;;442.73;;
47161;SDS011;32921;53.256;8.198;2023-11-18T00:12:10;418.10;;;387.67;;
47161;SDS011;32921;53.256;8.198;2023-11-18T00:14:36;408.35;;;378.08;;
47161;SDS011;32921;53.256;8.198;2023-11-18T00:17:02;470.25;;;435.55;;
47161;SDS011;32921;53.256;8.198;2023-11-18T00:19:29;433.80;;;402.33;;
47161;SDS011;32921;53.256;8.198;2023-11-18T00:21:54;439.70;;;407.10;;
47161;SDS011;32921;53.256;8.198;2023-11-18T00:24:20;440.55;;;408.20;;
47161;SDS011;32921;53.256;8.198;2023-11-18T00:26:46;444.75;;;411.88;;
47161;SDS011;32921;53.256;8.198;2023-11-18T00:29:11;457.02;;;422.85;;
47161;SDS011;32921;53.256;8.198;2023-11-18T00:31:37;474.98;;;439.45;;
47161;SDS011;32921;53.256;8.198;2023-11-18T00:34:03;483.70;;;447.13;;
47161;SDS011;32921;53.256;8.198;2023-11-18T00:36:28;492.30;;;454.13;;
47161;SDS011;32921;53.256;8.198;2023-11-18T00:38:54;552.90;;;510.27;;
47161;SDS011;32921;53.256;8.198;2023-11-18T00:41:20;596.50;;;550.10;;
47161;SDS011;32921;53.256;8.198;2023-11-18T00:43:46;563.60;;;520.30;;
47161;SDS011;32921;53.256;8.198;2023-11-18T00:46:11;599.47;;;553.30;;
47161;SDS011;32921;53.256;8.198;2023-11-18T00:48:37;622.33;;;573.90;;
47161;SDS011;32921;53.256;8.198;2023-11-18T00:51:03;646.95;;;597.15;;
47161;SDS011;32921;53.256;8.198;2023-11-18T00:53:30;639.20;;;590.03;;
47161;SDS011;32921;53.256;8.198;2023-11-18T00:55:56;640.33;;;591.40;;
47161;SDS011;32921;53.256;8.198;2023-11-18T00:58:21;644.13;;;594.30;;
47161;SDS011;32921;53.256;8.198;2023-11-18T01:00:47;621.28;;;573.53;;
47161;SDS011;32921;53.256;8.198;2023-11-18T01:03:12;647.30;;;597.67;;
47161;SDS011;32921;53.256;8.198;2023-11-18T01:05:38;690.35;;;636.35;;
47161;SDS011;32921;53.256;8.198;2023-11-18T01:08:04;700.35;;;646.33;;
47161;SDS011;32921;53.256;8.198;2023-11-18T01:10:30;679.38;;;626.42;;
47161;SDS011;32921;53.256;8.198;2023-11-18T01:12:56;688.75;;;635.85;;
47161;SDS011;32921;53.256;8.198;2023-11-18T01:15:23;648.17;;;598.78;;
47161;SDS011;32921;53.256;8.198;2023-11-18T01:17:48;645.70;;;596.25;;
47161;SDS011;32921;53.256;8.198;2023-11-18T01:20:14;663.38;;;611.65;;
47161;SDS011;32921;53.256;8.198;2023-11-18T01:22:45;645.40;;;595.85;;
47161;SDS011;32921;53.256;8.198;2023-11-18T01:25:12;585.50;;;540.47;;
47161;SDS011;32921;53.256;8.198;2023-11-18T01:27:37;588.88;;;544.03;;
47161;SDS011;32921;53.256;8.198;2023-11-18T01:30:04;575.38;;;532.08;;
47161;SDS011;32921;53.256;8.198;2023-11-18T01:32:31;575.38;;;531.13;;
47161;SDS011;32921;53.256;8.198;2023-11-18T01:34:56;568.80;;;525.55;;
47161;SDS011;32921;53.256;8.198;2023-11-18T01:37:22;571.10;;;527.47;;
47161;SDS011;32921;53.256;8.198;2023-11-18T01:39:48;569.53;;;525.97;;
47161;SDS011;32921;53.256;8.198;2023-11-18T01:42:14;504.52;;;466.52;;
47161;SDS011;32921;53.256;8.198;2023-11-18T01:44:40;586.08;;;540.90;;
47161;SDS011;32921;53.256;8.198;2023-11-18T01:47:06;617.28;;;569.88;;
47161;SDS011;32921;53.256;8.198;2023-11-18T01:49:35;580.85;;;536.88;;
47161;SDS011;32921;53.256;8.198;2023-11-18T01:52:04;576.70;;;532.60;;
47161;SDS011;32921;53.256;8.198;2023-11-18T01:54:32;522.97;;;483.40;;
47161;SDS011;32921;53.256;8.198;2023-11-18T01:56:59;548.72;;;507.00;;
47161;SDS011;32921;53.256;8.198;2023-11-18T01:59:28;540.42;;;498.95;;
47161;SDS011;32921;53.256;8.198;2023-11-18T02:01:55;487.88;;;450.48;;
47161;SDS011;32921;53.256;8.198;2023-11-18T02:04:24;500.27;;;462.73;;
47161;SDS011;32921;53.256;8.198;2023-11-18T02:06:50;443.40;;;409.65;;
47161;SDS011;32921;53.256;8.198;2023-11-18T02:09:17;402.17;;;371.50;;
47161;SDS011;32921;53.256;8.198;2023-11-18T02:11:57;385.02;;;356.60;;
47161;SDS011;32921;53.256;8.198;2023-11-18T02:14:34;353.52;;;328.00;;
47161;SDS011;32921;53.256;8.198;2023-11-18T02:17:04;382.58;;;354.55;;
47161;SDS011;32921;53.256;8.198;2023-11-18T02:19:34;381.90;;;353.40;;
47161;SDS011;32921;53.256;8.198;2023-11-18T02:22:00;383.60;;;355.00;;
47161;SDS011;32921;53.256;8.198;2023-11-18T02:24:27;453.27;;;417.63;;
47161;SDS011;32921;53.256;8.198;2023-11-18T02:26:59;375.40;;;346.98;;
47161;SDS011;32921;53.256;8.198;2023-11-18T02:29:25;334.63;;;310.55;;
47161;SDS011;32921;53.256;8.198;2023-11-18T02:31:57;372.20;;;344.08;;
47161;SDS011;32921;53.256;8.198;2023-11-18T02:34:27;407.20;;;375.73;;
47161;SDS011;32921;53.256;8.198;2023-11-18T02:36:57;425.00;;;392.15;;
47161;SDS011;32921;53.256;8.198;2023-11-18T02:39:43;451.88;;;414.45;;
47161;SDS011;32921;53.256;8.198;2023-11-18T02:42:10;501.42;;;462.00;;
47161;SDS011;32921;53.256;8.198;2023-11-18T02:44:37;519.00;;;476.25;;
47161;SDS011;32921;53.256;8.198;2023-11-18T02:47:04;500.85;;;459.98;;
47161;SDS011;32921;53.256;8.198;2023-11-18T02:49:30;448.88;;;412.70;;
47161;SDS011;32921;53.256;8.198;2023-11-18T02:51:56;456.02;;;418.65;;
47161;SDS011;32921;53.256;8.198;2023-11-18T02:54:21;502.98;;;462.60;;
47161;SDS011;32921;53.256;8.198;2023-11-18T02:56:48;438.45;;;402.52;;
47161;SDS011;32921;53.256;8.198;2023-11-18T02:59:14;382.25;;;352.35;;
47161;SDS011;32921;53.256;8.198;2023-11-18T03:01:40;360.60;;;333.45;;
47161;SDS011;32921;53.256;8.198;2023-11-18T03:04:06;387.52;;;355.10;;
47161;SDS011;32921;53.256;8.198;2023-11-18T03:06:32;358.20;;;330.02;;
47161;SDS011;32921;53.256;8.198;2023-11-18T03:08:58;353.45;;;325.73;;
47161;SDS011;32921;53.256;8.198;2023-11-18T03:11:23;326.92;;;301.65;;
47161;SDS011;32921;53.256;8.198;2023-11-18T03:13:49;344.05;;;317.92;;
47161;SDS011;32921;53.256;8.198;2023-11-18T03:16:15;354.25;;;326.27;;
47161;SDS011;32921;53.256;8.198;2023-11-18T03:18:42;382.55;;;349.52;;
47161;SDS011;32921;53.256;8.198;2023-11-18T03:21:14;359.30;;;329.95;;
47161;SDS011;32921;53.256;8.198;2023-11-18T03:23:40;373.20;;;342.40;;
47161;SDS011;32921;53.256;8.198;2023-11-18T03:26:07;321.35;;;297.50;;
47161;SDS011;32921;53.256;8.198;2023-11-18T03:28:33;295.13;;;274.67;;
47161;SDS011;32921;53.256;8.198;2023-11-18T03:30:58;301.45;;;280.17;;
47161;SDS011;32921;53.256;8.198;2023-11-18T03:33:24;335.65;;;309.85;;
47161;SDS011;32921;53.256;8.198;2023-11-18T03:35:50;303.33;;;281.35;;
47161;SDS011;32921;53.256;8.198;2023-11-18T03:38:16;322.70;;;298.30;;
47161;SDS011;32921;53.256;8.198;2023-11-18T03:40:44;286.92;;;266.73;;
47161;SDS011;32921;53.256;8.198;2023-11-18T03:43:11;294.92;;;272.83;;
47161;SDS011;32921;53.256;8.198;2023-11-18T03:45:38;333.08;;;308.35;;
47161;SDS011;32921;53.256;8.198;2023-11-18T03:48:05;328.13;;;303.52;;
47161;SDS011;32921;53.256;8.198;2023-11-18T03:50:31;293.77;;;272.63;;
47161;SDS011;32921;53.256;8.198;2023-11-18T03:52:57;317.95;;;293.38;;
47161;SDS011;32921;53.256;8.198;2023-11-18T03:55:23;283.85;;;263.77;;
47161;SDS011;32921;53.256;8.198;2023-11-18T03:57:50;319.27;;;294.40;;
47161;SDS011;32921;53.256;8.198;2023-11-18T04:00:17;325.42;;;300.33;;
47161;SDS011;32921;53.256;8.198;2023-11-18T04:02:42;314.83;;;290.08;;
47161;SDS011;32921;53.256;8.198;2023-11-18T04:05:10;342.92;;;315.23;;
47161;SDS011;32921;53.256;8.198;2023-11-18T04:07:37;345.95;;;317.85;;
47161;SDS011;32921;53.256;8.198;2023-11-18T04:10:02;330.90;;;305.40;;
47161;SDS011;32921;53.256;8.198;2023-11-18T04:12:31;341.70;;;314.13;;
47161;SDS011;32921;53.256;8.198;2023-11-18T04:14:57;343.80;;;316.58;;
47161;SDS011;32921;53.256;8.198;2023-11-18T04:17:22;347.55;;;320.25;;
47161;SDS011;32921;53.256;8.198;2023-11-18T04:19:48;340.17;;;314.33;;
47161;SDS011;32921;53.256;8.198;2023-11-18T04:22:13;337.65;;;311.55;;
47161;SDS011;32921;53.256;8.198;2023-11-18T04:24:39;378.48;;;346.88;;
47161;SDS011;32921;53.256;8.198;2023-11-18T04:27:05;345.15;;;318.33;;
47161;SDS011;32921;53.256;8.198;2023-11-18T04:29:30;336.10;;;308.67;;
47161;SDS011;32921;53.256;8.198;2023-11-18T04:31:56;341.48;;;313.98;;
47161;SDS011;32921;53.256;8.198;2023-11-18T04:34:21;339.27;;;312.52;;
47161;SDS011;32921;53.256;8.198;2023-11-18T04:36:48;297.80;;;275.48;;
47161;SDS011;32921;53.256;8.198;2023-11-18T04:39:13;292.55;;;271.35;;
47161;SDS011;32921;53.256;8.198;2023-11-18T04:41:40;346.95;;;320.20;;
47161;SDS011;32921;53.256;8.198;2023-11-18T04:44:06;248.57;;;230.80;;
47161;SDS011;32921;53.256;8.198;2023-11-18T04:46:32;325.15;;;300.73;;
47161;SDS011;32921;53.256;8.198;2023-11-18T04:48:57;327.58;;;303.35;;
47161;SDS011;32921;53.256;8.198;2023-11-18T04:51:23;354.17;;;325.90;;
47161;SDS011;32921;53.256;8.198;2023-11-18T04:53:49;370.98;;;343.35;;
47161;SDS011;32921;53.256;8.198;2023-11-18T04:56:15;350.77;;;324.52;;
47161;SDS011;32921;53.256;8.198;2023-11-18T04:58:43;392.38;;;363.13;;
47161;SDS011;32921;53.256;8.198;2023-11-18T05:01:11;413.33;;;382.02;;
47161;SDS011;32921;53.256;8.198;2023-11-18T05:03:38;415.33;;;383.67;;
47161;SDS011;32921;53.256;8.198;2023-11-18T05:06:03;444.08;;;410.88;;
47161;SDS011;32921;53.256;8.198;2023-11-18T05:08:29;498.08;;;460.15;;
47161;SDS011;32921;53.256;8.198;2023-11-18T05:10:55;488.88;;;452.67;;
47161;SDS011;32921;53.256;8.198;2023-11-18T05:13:22;408.58;;;378.02;;
47161;SDS011;32921;53.256;8.198;2023-11-18T05:15:48;518.30;;;478.58;;
47161;SDS011;32921;53.256;8.198;2023-11-18T05:18:15;625.30;;;577.75;;
47161;SDS011;32921;53.256;8.198;2023-11-18T05:20:41;612.83;;;566.17;;
47161;SDS011;32921;53.256;8.198;2023-11-18T05:23:07;649.63;;;599.95;;
47161;SDS011;32921;53.256;8.198;2023-11-18T05:25:35;678.53;;;626.50;;
47161;SDS011;32921;53.256;8.198;2023-11-18T05:28:02;701.85;;;648.13;;
47161;SDS011;32921;53.256;8.198;2023-11-18T05:30:28;705.72;;;651.25;;
47161;SDS011;32921;53.256;8.198;2023-11-18T05:32:55;704.95;;;650.90;;
47161;SDS011;32921;53.256;8.198;2023-11-18T05:35:23;720.45;;;665.38;;
47161;SDS011;32921;53.256;8.198;2023-11-18T05:37:53;679.90;;;627.88;;
47161;SDS011;32921;53.256;8.198;2023-11-18T05:40:19;686.53;;;634.05;;
47161;SDS011;32921;53.256;8.198;2023-11-18T05:42:45;706.85;;;652.58;;
47161;SDS011;32921;53.256;8.198;2023-11-18T05:45:13;685.33;;;633.00;;
47161;SDS011;32921;53.256;8.198;2023-11-18T05:47:52;709.13;;;654.63;;
47161;SDS011;32921;53.256;8.198;2023-11-18T05:50:21;695.60;;;642.50;;
47161;SDS011;32921;53.256;8.198;2023-11-18T05:52:47;691.15;;;638.28;;
47161;SDS011;32921;53.256;8.198;2023-11-18T05:55:13;680.78;;;628.22;;
47161;SDS011;32921;53.256;8.198;2023-11-18T05:57:38;725.72;;;670.30;;
47161;SDS011;32921;53.256;8.198;2023-11-18T06:00:04;696.92;;;642.92;;
47161;SDS011;32921;53.256;8.198;2023-11-18T06:02:30;685.67;;;632.55;;
47161;SDS011;32921;53.256;8.198;2023-11-18T06:04:56;698.65;;;644.88;;
47161;SDS011;32921;53.256;8.198;2023-11-18T06:07:22;675.42;;;623.42;;
47161;SDS011;32921;53.256;8.198;2023-11-18T06:09:48;705.53;;;650.75;;
47161;SDS011;32921;53.256;8.198;2023-11-18T06:12:13;660.40;;;609.00;;
47161;SDS011;32921;53.256;8.198;2023-11-18T06:14:42;685.65;;;632.60;;
47161;SDS011;32921;53.256;8.198;2023-11-18T06:17:09;679.45;;;627.38;;
47161;SDS011;32921;53.256;8.198;2023-11-18T06:19:38;700.10;;;645.97;;
47161;SDS011;32921;53.256;8.198;2023-11-18T06:22:04;696.25;;;642.92;;
47161;SDS011;32921;53.256;8.198;2023-11-18T06:24:30;731.50;;;675.28;;
47161;SDS011;32921;53.256;8.198;2023-11-18T06:26:56;713.97;;;659.08;;
47161;SDS011;32921;53.256;8.198;2023-11-18T06:29:22;732.05;;;675.90;;
47161;SDS011;32921;53.256;8.198;2023-11-18T06:31:48;736.15;;;679.50;;
47161;SDS011;32921;53.256;8.198;2023-11-18T06:34:14;719.88;;;664.47;;
47161;SDS011;32921;53.256;8.198;2023-11-18T06:36:39;665.53;;;614.28;;
47161;SDS011;32921;53.256;8.198;2023-11-18T06:39:05;670.10;;;618.00;;
47161;SDS011;32921;53.256;8.198;2023-11-18T06:41:32;705.17;;;650.88;;
47161;SDS011;32921;53.256;8.198;2023-11-18T06:44:03;674.37;;;621.60;;
47161;SDS011;32921;53.256;8.198;2023-11-18T06:46:37;668.55;;;616.67;;
47161;SDS011;32921;53.256;8.198;2023-11-18T06:49:04;714.20;;;659.58;;
47161;SDS011;32921;53.256;8.198;2023-11-18T06:51:32;690.22;;;636.72;;
47161;SDS011;32921;53.256;8.198;2023-11-18T06:54:03;653.92;;;603.60;;
47161;SDS011;32921;53.256;8.198;2023-11-18T06:56:34;651.10;;;600.83;;
47161;SDS011;32921;53.256;8.198;2023-11-18T06:59:04;639.53;;;589.08;;
47161;SDS011;32921;53.256;8.198;2023-11-18T07:01:31;642.97;;;593.35;;
47161;SDS011;32921;53.256;8.198;2023-11-18T07:03:58;650.10;;;599.85;;
47161;SDS011;32921;53.256;8.198;2023-11-18T07:06:23;687.25;;;634.15;;
47161;SDS011;32921;53.256;8.198;2023-11-18T07:08:51;639.15;;;589.67;;
47161;SDS011;32921;53.256;8.198;2023-11-18T07:11:18;614.55;;;567.50;;
47161;SDS011;32921;53.256;8.198;2023-11-18T07:13:47;611.90;;;565.03;;
47161;SDS011;32921;53.256;8.198;2023-11-18T07:16:14;605.50;;;559.08;;
47161;SDS011;32921;53.256;8.198;2023-11-18T07:18:40;647.03;;;597.45;;
47161;SDS011;32921;53.256;8.198;2023-11-18T07:21:09;587.67;;;542.08;;
47161;SDS011;32921;53.256;8.198;2023-11-18T07:23:35;646.47;;;596.42;;
47161;SDS011;32921;53.256;8.198;2023-11-18T07:26:01;650.20;;;600.50;;
47161;SDS011;32921;53.256;8.198;2023-11-18T07:28:29;647.20;;;597.15;;
47161;SDS011;32921;53.256;8.198;2023-11-18T07:30:54;676.00;;;623.35;;
47161;SDS011;32921;53.256;8.198;2023-11-18T07:33:20;623.28;;;574.50;;
47161;SDS011;32921;53.256;8.198;2023-11-18T07:35:47;658.40;;;607.85;;
47161;SDS011;32921;53.256;8.198;2023-11-18T07:38:13;621.92;;;573.35;;
47161;SDS011;32921;53.256;8.198;2023-11-18T07:40:39;596.60;;;549.97;;
47161;SDS011;32921;53.256;8.198;2023-11-18T07:43:11;614.17;;;566.78;;
47161;SDS011;32921;53.256;8.198;2023-11-18T07:45:42;615.13;;;566.97;;
47161;SDS011;32921;53.256;8.198;2023-11-18T07:48:09;613.13;;;565.65;;
47161;SDS011;32921;53.256;8.198;2023-11-18T07:50:36;648.22;;;598.33;;
47161;SDS011;32921;53.256;8.198;2023-11-18T07:53:05;647.90;;;598.05;;
47161;SDS011;32921;53.256;8.198;2023-11-18T07:55:31;649.72;;;598.47;;
47161;SDS011;32921;53.256;8.198;2023-11-18T07:58:00;658.78;;;607.67;;
47161;SDS011;32921;53.256;8.198;2023-11-18T08:00:27;608.75;;;562.38;;
47161;SDS011;32921;53.256;8.198;2023-11-18T08:02:55;619.80;;;572.92;;
47161;SDS011;32921;53.256;8.198;2023-11-18T08:05:22;621.15;;;573.05;;
47161;SDS011;32921;53.256;8.198;2023-11-18T08:07:48;620.15;;;572.72;;
47161;SDS011;32921;53.256;8.198;2023-11-18T08:10:14;600.45;;;552.80;;
47161;SDS011;32921;53.256;8.198;2023-11-18T08:12:43;623.50;;;575.30;;
47161;SDS011;32921;53.256;8.198;2023-11-18T08:15:10;591.95;;;545.80;;
47161;SDS011;32921;53.256;8.198;2023-11-18T08:17:35;673.45;;;621.90;;
47161;SDS011;32921;53.256;8.198;2023-11-18T08:20:01;672.30;;;620.28;;
47161;SDS011;32921;53.256;8.198;2023-11-18T08:22:38;652.22;;;602.03;;
47161;SDS011;32921;53.256;8.198;2023-11-18T08:25:05;666.95;;;615.78;;
47161;SDS011;32921;53.256;8.198;2023-11-18T08:27:33;680.22;;;627.63;;
47161;SDS011;32921;53.256;8.198;2023-11-18T08:30:00;706.05;;;651.13;;
47161;SDS011;32921;53.256;8.198;2023-11-18T08:32:26;699.65;;;644.70;;
47161;SDS011;32921;53.256;8.198;2023-11-18T08:34:51;701.20;;;646.53;;
47161;SDS011;32921;53.256;8.198;2023-11-18T08:37:17;686.08;;;632.67;;
47161;SDS011;32921;53.256;8.198;2023-11-18T08:39:42;669.92;;;617.63;;
47161;SDS011;32921;53.256;8.198;2023-11-18T08:42:08;688.03;;;634.80;;
47161;SDS011;32921;53.256;8.198;2023-11-18T08:44:33;688.33;;;635.80;;
47161;SDS011;32921;53.256;8.198;2023-11-18T08:46:59;735.17;;;678.72;;
47161;SDS011;32921;53.256;8.198;2023-11-18T08:49:26;701.10;;;647.28;;
47161;SDS011;32921;53.256;8.198;2023-11-18T08:51:58;697.85;;;643.33;;
47161;SDS011;32921;53.256;8.198;2023-11-18T08:54:24;670.53;;;617.72;;
47161;SDS011;32921;53.256;8.198;2023-11-18T08:57:10;698.38;;;643.17;;
47161;SDS011;32921;53.256;8.198;2023-11-18T08:59:49;702.58;;;647.85;;
47161;SDS011;32921;53.256;8.198;2023-11-18T09:02:17;710.03;;;655.10;;
47161;SDS011;32921;53.256;8.198;2023-11-18T09:04:48;677.35;;;625.33;;
47161;SDS011;32921;53.256;8.198;2023-11-18T09:07:14;688.70;;;635.13;;
47161;SDS011;32921;53.256;8.198;2023-11-18T09:09:40;730.30;;;674.22;;
47161;SDS011;32921;53.256;8.198;2023-11-18T09:12:06;737.88;;;681.78;;
47161;SDS011;32921;53.256;8.198;2023-11-18T09:14:33;671.28;;;620.35;;
47161;SDS011;32921;53.256;8.198;2023-11-18T09:16:59;673.78;;;621.88;;
47161;SDS011;32921;53.256;8.198;2023-11-18T09:19:25;652.17;;;602.33;;
47161;SDS011;32921;53.256;8.198;2023-11-18T09:21:51;588.58;;;543.63;;
47161;SDS011;32921;53.256;8.198;2023-11-18T09:24:17;517.75;;;477.23;;
47161;SDS011;32921;53.256;8.198;2023-11-18T09:26:45;570.53;;;525.70;;
47161;SDS011;32921;53.256;8.198;2023-11-18T09:29:15;404.98;;;373.75;;
47161;SDS011;32921;53.256;8.198;2023-11-18T09:31:46;335.42;;;310.10;;
47161;SDS011;32921;53.256;8.198;2023-11-18T09:34:17;317.90;;;295.33;;
47161;SDS011;32921;53.256;8.198;2023-11-18T09:36:51;330.77;;;306.17;;
47161;SDS011;32921;53.256;8.198;2023-11-18T09:39:17;307.85;;;284.27;;
47161;SDS011;32921;53.256;8.198;2023-11-18T09:41:55;290.08;;;270.00;;
47161;SDS011;32921;53.256;8.198;2023-11-18T09:44:22;297.20;;;276.77;;
47161;SDS011;32921;53.256;8.198;2023-11-18T09:46:52;308.50;;;287.55;;
47161;SDS011;32921;53.256;8.198;2023-11-18T09:49:29;330.63;;;307.65;;
47161;SDS011;32921;53.256;8.198;2023-11-18T09:52:04;299.08;;;279.33;;
47161;SDS011;32921;53.256;8.198;2023-11-18T09:54:39;368.45;;;343.15;;
47161;SDS011;32921;53.256;8.198;2023-11-18T09:57:23;412.45;;;384.00;;
47161;SDS011;32921;53.256;8.198;2023-11-18T10:00:03;403.73;;;376.42;;
47161;SDS011;32921;53.256;8.198;2023-11-18T10:02:44;415.00;;;387.55;;
47161;SDS011;32921;53.256;8.198;2023-11-18T10:05:11;476.13;;;442.63;;
47161;SDS011;32921;53.256;8.198;2023-11-18T10:07:41;503.92;;;468.17;;
47161;SDS011;32921;53.256;8.198;2023-11-18T10:10:10;565.70;;;524.47;;
47161;SDS011;32921;53.256;8.198;2023-11-18T10:12:42;641.70;;;595.08;;
47161;SDS011;32921;53.256;8.198;2023-11-18T10:15:16;681.03;;;630.83;;
47161;SDS011;32921;53.256;8.198;2023-11-18T10:17:44;695.05;;;642.35;;
47161;SDS011;32921;53.256;8.198;2023-11-18T10:20:47;716.38;;;662.80;;
47161;SDS011;32921;53.256;8.198;2023-11-18T10:23:17;768.67;;;709.42;;
47161;SDS011;32921;53.256;8.198;2023-11-18T10:25:47;810.05;;;745.95;;
47161;SDS011;32921;53.256;8.198;2023-11-18T10:28:35;772.35;;;709.88;;
47161;SDS011;32921;53.256;8.198;2023-11-18T10:31:03;811.45;;;744.92;;
47161;SDS011;32921;53.256;8.198;2023-11-18T10:33:38;844.05;;;773.22;;
47161;SDS011;32921;53.256;8.198;2023-11-18T10:36:16;880.10;;;802.00;;
47161;SDS011;32921;53.256;8.198;2023-11-18T10:38:49;774.65;;;707.55;;
47161;SDS011;32921;53.256;8.198;2023-11-18T10:41:17;848.15;;;768.97;;
47161;SDS011;32921;53.256;8.198;2023-11-18T10:43:43;785.85;;;712.80;;
47161;SDS011;32921;53.256;8.198;2023-11-18T10:46:10;835.70;;;756.40;;
47161;SDS011;32921;53.256;8.198;2023-11-18T10:48:44;734.15;;;662.90;;
47161;SDS011;32921;53.256;8.198;2023-11-18T10:51:17;775.25;;;700.83;;
47161;SDS011;32921;53.256;8.198;2023-11-18T10:53:44;804.75;;;726.50;;
47161;SDS011;32921;53.256;8.198;2023-11-18T10:56:21;745.85;;;675.88;;
47161;SDS011;32921;53.256;8.198;2023-11-18T10:58:51;672.95;;;609.60;;
47161;SDS011;32921;53.256;8.198;2023-11-18T11:01:26;680.75;;;612.50;;
47161;SDS011;32921;53.256;8.198;2023-11-18T11:03:53;578.72;;;523.05;;
47161;SDS011;32921;53.256;8.198;2023-11-18T11:06:25;613.70;;;552.72;;
47161;SDS011;32921;53.256;8.198;2023-11-18T11:08:55;583.25;;;524.67;;
47161;SDS011;32921;53.256;8.198;2023-11-18T11:11:24;796.20;;;714.40;;
47161;SDS011;32921;53.256;8.198;2023-11-18T11:13:56;725.90;;;648.72;;
47161;SDS011;32921;53.256;8.198;2023-11-18T11:16:23;644.45;;;579.10;;
47161;SDS011;32921;53.256;8.198;2023-11-18T11:19:34;514.22;;;464.65;;
47161;SDS011;32921;53.256;8.198;2023-11-18T11:22:14;601.08;;;543.58;;
47161;SDS011;32921;53.256;8.198;2023-11-18T11:27:28;592.70;;;533.88;;
47161;SDS011;32921;53.256;8.198;2023-11-18T11:30:40;682.28;;;611.95;;
47161;SDS011;32921;53.256;8.198;2023-11-18T11:35:37;650.33;;;584.53;;
47161;SDS011;32921;53.256;8.198;2023-11-18T11:38:09;742.10;;;664.65;;
47161;SDS011;32921;53.256;8.198;2023-11-18T11:40:42;819.95;;;733.20;;
47161;SDS011;32921;53.256;8.198;2023-11-18T11:43:09;636.83;;;571.33;;
47161;SDS011;32921;53.256;8.198;2023-11-18T11:45:40;600.45;;;541.08;;
47161;SDS011;32921;53.256;8.198;2023-11-18T11:48:08;553.72;;;498.30;;
47161;SDS011;32921;53.256;8.198;2023-11-18T11:51:00;603.05;;;543.17;;
47161;SDS011;32921;53.256;8.198;2023-11-18T11:56:46;449.67;;;407.63;;
47161;SDS011;32921;53.256;8.198;2023-11-18T11:59:17;553.03;;;499.02;;
47161;SDS011;32921;53.256;8.198;2023-11-18T12:01:54;628.03;;;563.60;;
47161;SDS011;32921;53.256;8.198;2023-11-18T12:04:23;782.55;;;696.28;;
47161;SDS011;32921;53.256;8.198;2023-11-18T12:06:53;777.42;;;693.33;;
47161;SDS011;32921;53.256;8.198;2023-11-18T12:09:21;810.88;;;720.53;;
47161;SDS011;32921;53.256;8.198;2023-11-18T12:11:47;676.40;;;604.13;;
47161;SDS011;32921;53.256;8.198;2023-11-18T12:14:16;630.60;;;565.97;;
47161;SDS011;32921;53.256;8.198;2023-11-18T12:16:58;734.40;;;653.33;;
47161;SDS011;32921;53.256;8.198;2023-11-18T12:19:33;585.28;;;524.20;;
47161;SDS011;32921;53.256;8.198;2023-11-18T12:25:28;336.83;;;311.38;;
47161;SDS011;32921;53.256;8.198;2023-11-18T12:27:45;434.08;;;393.17;;
47161;SDS011;32921;53.256;8.198;2023-11-18T12:32:59;617.97;;;552.10;;
47161;SDS011;32921;53.256;8.198;2023-11-18T12:38:38;299.42;;;276.77;;
47161;SDS011;32921;53.256;8.198;2023-11-18T12:41:25;506.25;;;455.88;;
47161;SDS011;32921;53.256;8.198;2023-11-18T12:46:53;590.40;;;529.22;;
47161;SDS011;32921;53.256;8.198;2023-11-18T12:49:22;621.13;;;554.55;;
47161;SDS011;32921;53.256;8.198;2023-11-18T12:51:52;705.35;;;634.40;;
47161;SDS011;32921;53.256;8.198;2023-11-18T12:54:20;750.90;;;670.83;;
47161;SDS011;32921;53.256;8.198;2023-11-18T12:56:50;797.90;;;711.80;;
47161;SDS011;32921;53.256;8.198;2023-11-18T12:59:18;756.05;;;673.78;;
47161;SDS011;32921;53.256;8.198;2023-11-18T13:01:48;772.25;;;686.47;;
47161;SDS011;32921;53.256;8.198;2023-11-18T13:04:21;665.95;;;592.33;;
47161;SDS011;32921;53.256;8.198;2023-11-18T13:06:49;786.97;;;701.28;;
47161;SDS011;32921;53.256;8.198;2023-11-18T13:09:19;729.13;;;649.05;;
47161;SDS011;32921;53.256;8.198;2023-11-18T13:12:00;662.00;;;591.05;;
47161;SDS011;32921;53.256;8.198;2023-11-18T13:14:31;698.67;;;623.85;;
47161;SDS011;32921;53.256;8.198;2023-11-18T13:17:04;662.00;;;594.47;;
47161;SDS011;32921;53.256;8.198;2023-11-18T13:19:33;557.38;;;498.70;;
47161;SDS011;32921;53.256;8.198;2023-11-18T13:22:00;536.53;;;483.13;;
47161;SDS011;32921;53.256;8.198;2023-11-18T13:24:29;583.50;;;524.17;;
47161;SDS011;32921;53.256;8.198;2023-11-18T13:26:55;788.92;;;705.45;;
47161;SDS011;32921;53.256;8.198;2023-11-18T13:29:22;794.85;;;711.60;;
47161;SDS011;32921;53.256;8.198;2023-11-18T13:31:49;897.75;;;802.85;;
47161;SDS011;32921;53.256;8.198;2023-11-18T13:34:18;855.38;;;762.67;;
47161;SDS011;32921;53.256;8.198;2023-11-18T13:36:45;808.40;;;723.22;;
47161;SDS011;32921;53.256;8.198;2023-11-18T13:39:15;970.88;;;865.72;;
47161;SDS011;32921;53.256;8.198;2023-11-18T13:41:48;830.30;;;742.85;;
47161;SDS011;32921;53.256;8.198;2023-11-18T13:44:33;771.00;;;688.95;;
47161;SDS011;32921;53.256;8.198;2023-11-18T13:47:00;739.42;;;662.42;;
47161;SDS011;32921;53.256;8.198;2023-11-18T13:49:35;738.92;;;662.65;;
47161;SDS011;32921;53.256;8.198;2023-11-18T13:52:05;812.38;;;726.97;;
47161;SDS011;32921;53.256;8.198;2023-11-18T13:54:34;883.65;;;790.15;;
47161;SDS011;32921;53.256;8.198;2023-11-18T13:57:00;888.30;;;792.20;;
47161;SDS011;32921;53.256;8.198;2023-11-18T13:59:28;822.60;;;736.45;;
47161;SDS011;32921;53.256;8.198;2023-11-18T14:01:54;854.67;;;763.95;;
47161;SDS011;32921;53.256;8.198;2023-11-18T14:04:23;790.03;;;706.03;;
47161;SDS011;32921;53.256;8.198;2023-11-18T14:06:53;790.05;;;708.30;;
47161;SDS011;32921;53.256;8.198;2023-11-18T14:09:22;824.75;;;737.55;;
47161;SDS011;32921;53.256;8.198;2023-11-18T14:11:50;883.95;;;789.20;;
47161;SDS011;32921;53.256;8.198;2023-11-18T14:14:16;844.47;;;755.95;;
47161;SDS011;32921;53.256;8.198;2023-11-18T14:16:43;794.40;;;712.35;;
47161;SDS011;32921;53.256;8.198;2023-11-18T14:19:09;933.95;;;835.67;;
47161;SDS011;32921;53.256;8.198;2023-11-18T14:21:36;842.20;;;755.95;;
47161;SDS011;32921;53.256;8.198;2023-11-18T14:24:01;853.22;;;767.75;;
47161;SDS011;32921;53.256;8.198;2023-11-18T14:26:28;793.55;;;713.65;;